sensor_id;sensor_type;location;lat;lon;timestamp;P1;durP1;ratioP1;P2;durP2;ratioP2
67867;SDS011;54672;46.096;14.470;2022-11-20T00:01:32;4.35;;;1.40;;
67867;SDS011;54672;46.096;14.470;2022-11-20T00:03:58;2.45;;;1.70;;
67867;SDS011;54672;46.096;14.470;2022-11-20T00:06:24;3.00;;;0.90;;
67867;SDS011;54672;46.096;14.470;2022-11-20T00:08:50;2.08;;;1.20;;
67867;SDS011;54672;46.096;14.470;2022-11-20T00:11:20;2.83;;;1.40;;
67867;SDS011;54672;46.096;14.470;2022-11-20T00:13:48;2.70;;;1.30;;
67867;SDS011;54672;46.096;14.470;2022-11-20T00:16:18;2.88;;;1.42;;
67867;SDS011;54672;46.096;14.470;2022-11-20T00:18:45;2.13;;;1.35;;
67867;SDS011;54672;46.096;14.470;2022-11-20T00:21:12;2.60;;;1.65;;
67867;SDS011;54672;46.096;14.470;2022-11-20T00:23:49;3.83;;;1.80;;
67867;SDS011;54672;46.096;14.470;2022-11-20T00:26:16;4.10;;;2.22;;
67867;SDS011;54672;46.096;14.470;2022-11-20T00:28:43;5.05;;;2.00;;
67867;SDS011;54672;46.096;14.470;2022-11-20T00:31:13;4.63;;;2.30;;
67867;SDS011;54672;46.096;14.470;2022-11-20T00:33:40;4.00;;;2.10;;
67867;SDS011;54672;46.096;14.470;2022-11-20T00:36:07;4.07;;;1.70;;
67867;SDS011;54672;46.096;14.470;2022-11-20T00:38:34;3.13;;;1.92;;
67867;SDS011;54672;46.096;14.470;2022-11-20T00:41:01;3.63;;;2.00;;
67867;SDS011;54672;46.096;14.470;2022-11-20T00:43:28;2.65;;;1.60;;
67867;SDS011;54672;46.096;14.470;2022-11-20T00:46:00;2.58;;;1.63;;
67867;SDS011;54672;46.096;14.470;2022-11-20T00:48:28;3.35;;;1.50;;
67867;SDS011;54672;46.096;14.470;2022-11-20T00:50:53;2.35;;;1.45;;
67867;SDS011;54672;46.096;14.470;2022-11-20T00:53:19;3.28;;;1.40;;
67867;SDS011;54672;46.096;14.470;2022-11-20T00:55:54;3.50;;;1.60;;
67867;SDS011;54672;46.096;14.470;2022-11-20T00:58:30;2.92;;;1.40;;
67867;SDS011;54672;46.096;14.470;2022-11-20T01:01:05;2.10;;;1.27;;
67867;SDS011;54672;46.096;14.470;2022-11-20T01:03:32;2.13;;;1.25;;
67867;SDS011;54672;46.096;14.470;2022-11-20T01:05:59;2.53;;;1.25;;
67867;SDS011;54672;46.096;14.470;2022-11-20T01:08:28;2.30;;;1.50;;
67867;SDS011;54672;46.096;14.470;2022-11-20T01:10:58;4.47;;;2.47;;
67867;SDS011;54672;46.096;14.470;2022-11-20T01:13:25;6.18;;;2.88;;
67867;SDS011;54672;46.096;14.470;2022-11-20T01:18:36;3.00;;;1.38;;
67867;SDS011;54672;46.096;14.470;2022-11-20T01:21:04;3.95;;;1.90;;
67867;SDS011;54672;46.096;14.470;2022-11-20T01:23:35;10.05;;;3.83;;
67867;SDS011;54672;46.096;14.470;2022-11-20T01:26:12;10.57;;;4.43;;
67867;SDS011;54672;46.096;14.470;2022-11-20T01:28:40;4.95;;;2.13;;
67867;SDS011;54672;46.096;14.470;2022-11-20T01:31:19;4.53;;;2.22;;
67867;SDS011;54672;46.096;14.470;2022-11-20T01:33:58;2.47;;;1.40;;
67867;SDS011;54672;46.096;14.470;2022-11-20T01:36:27;5.25;;;2.05;;
67867;SDS011;54672;46.096;14.470;2022-11-20T01:38:54;4.30;;;1.92;;
67867;SDS011;54672;46.096;14.470;2022-11-20T01:41:22;2.67;;;1.45;;
67867;SDS011;54672;46.096;14.470;2022-11-20T01:44:07;5.10;;;2.20;;
67867;SDS011;54672;46.096;14.470;2022-11-20T01:46:35;6.82;;;3.17;;
67867;SDS011;54672;46.096;14.470;2022-11-20T01:51:42;3.60;;;1.30;;
67867;SDS011;54672;46.096;14.470;2022-11-20T01:54:19;4.25;;;2.83;;
67867;SDS011;54672;46.096;14.470;2022-11-20T01:57:01;5.15;;;2.30;;
67867;SDS011;54672;46.096;14.470;2022-11-20T01:59:29;5.47;;;1.60;;
67867;SDS011;54672;46.096;14.470;2022-11-20T02:01:54;7.57;;;2.63;;
67867;SDS011;54672;46.096;14.470;2022-11-20T02:04:20;6.22;;;2.58;;
67867;SDS011;54672;46.096;14.470;2022-11-20T02:06:49;3.58;;;2.00;;
67867;SDS011;54672;46.096;14.470;2022-11-20T02:09:21;4.78;;;2.00;;
67867;SDS011;54672;46.096;14.470;2022-11-20T02:11:47;2.67;;;1.45;;
67867;SDS011;54672;46.096;14.470;2022-11-20T02:14:12;3.65;;;1.83;;
67867;SDS011;54672;46.096;14.470;2022-11-20T02:16:40;3.47;;;1.80;;
67867;SDS011;54672;46.096;14.470;2022-11-20T02:19:13;4.13;;;1.75;;
67867;SDS011;54672;46.096;14.470;2022-11-20T02:21:50;3.67;;;1.83;;
67867;SDS011;54672;46.096;14.470;2022-11-20T02:24:20;3.25;;;1.80;;
67867;SDS011;54672;46.096;14.470;2022-11-20T02:26:51;2.97;;;1.70;;
67867;SDS011;54672;46.096;14.470;2022-11-20T02:29:24;3.45;;;1.67;;
67867;SDS011;54672;46.096;14.470;2022-11-20T02:31:52;2.42;;;1.30;;
67867;SDS011;54672;46.096;14.470;2022-11-20T02:34:20;2.90;;;1.80;;
67867;SDS011;54672;46.096;14.470;2022-11-20T02:36:45;2.63;;;1.42;;
67867;SDS011;54672;46.096;14.470;2022-11-20T02:39:13;2.72;;;1.30;;
67867;SDS011;54672;46.096;14.470;2022-11-20T02:41:42;2.53;;;1.27;;
67867;SDS011;54672;46.096;14.470;2022-11-20T02:44:07;2.08;;;1.33;;
67867;SDS011;54672;46.096;14.470;2022-11-20T02:46:33;2.22;;;1.20;;
67867;SDS011;54672;46.096;14.470;2022-11-20T02:49:00;1.80;;;1.20;;
67867;SDS011;54672;46.096;14.470;2022-11-20T02:51:26;2.58;;;1.33;;
67867;SDS011;54672;46.096;14.470;2022-11-20T02:53:52;3.88;;;1.40;;
67867;SDS011;54672;46.096;14.470;2022-11-20T02:56:17;2.42;;;1.27;;
67867;SDS011;54672;46.096;14.470;2022-11-20T02:58:43;1.85;;;1.10;;
67867;SDS011;54672;46.096;14.470;2022-11-20T03:01:08;2.47;;;1.33;;
67867;SDS011;54672;46.096;14.470;2022-11-20T03:03:33;2.15;;;1.45;;
67867;SDS011;54672;46.096;14.470;2022-11-20T03:05:59;3.55;;;1.40;;
67867;SDS011;54672;46.096;14.470;2022-11-20T03:08:25;1.67;;;0.95;;
67867;SDS011;54672;46.096;14.470;2022-11-20T03:10:50;2.05;;;1.23;;
67867;SDS011;54672;46.096;14.470;2022-11-20T03:13:18;2.08;;;1.13;;
67867;SDS011;54672;46.096;14.470;2022-11-20T03:15:43;2.55;;;1.33;;
67867;SDS011;54672;46.096;14.470;2022-11-20T03:18:09;1.83;;;1.10;;
67867;SDS011;54672;46.096;14.470;2022-11-20T03:20:34;1.75;;;1.10;;
67867;SDS011;54672;46.096;14.470;2022-11-20T03:22:59;2.95;;;1.23;;
67867;SDS011;54672;46.096;14.470;2022-11-20T03:25:26;1.83;;;1.23;;
67867;SDS011;54672;46.096;14.470;2022-11-20T03:27:51;2.25;;;1.17;;
67867;SDS011;54672;46.096;14.470;2022-11-20T03:30:17;1.55;;;1.02;;
67867;SDS011;54672;46.096;14.470;2022-11-20T03:32:42;3.75;;;1.17;;
67867;SDS011;54672;46.096;14.470;2022-11-20T03:35:08;2.60;;;1.25;;
67867;SDS011;54672;46.096;14.470;2022-11-20T03:37:34;1.98;;;1.10;;
67867;SDS011;54672;46.096;14.470;2022-11-20T03:39:59;2.50;;;1.30;;
67867;SDS011;54672;46.096;14.470;2022-11-20T03:42:24;1.40;;;0.95;;
67867;SDS011;54672;46.096;14.470;2022-11-20T03:45:08;1.75;;;1.10;;
67867;SDS011;54672;46.096;14.470;2022-11-20T03:47:34;1.58;;;0.95;;
67867;SDS011;54672;46.096;14.470;2022-11-20T03:49:59;1.73;;;1.00;;
67867;SDS011;54672;46.096;14.470;2022-11-20T03:52:24;1.50;;;0.90;;
67867;SDS011;54672;46.096;14.470;2022-11-20T03:54:50;1.73;;;0.98;;
67867;SDS011;54672;46.096;14.470;2022-11-20T03:57:15;1.60;;;1.00;;
67867;SDS011;54672;46.096;14.470;2022-11-20T03:59:40;1.50;;;1.02;;
67867;SDS011;54672;46.096;14.470;2022-11-20T04:02:06;1.60;;;1.10;;
67867;SDS011;54672;46.096;14.470;2022-11-20T04:04:31;1.45;;;0.90;;
67867;SDS011;54672;46.096;14.470;2022-11-20T04:06:56;1.98;;;1.05;;
67867;SDS011;54672;46.096;14.470;2022-11-20T04:09:22;2.42;;;1.27;;
67867;SDS011;54672;46.096;14.470;2022-11-20T04:11:47;1.50;;;1.00;;
67867;SDS011;54672;46.096;14.470;2022-11-20T04:14:13;1.50;;;1.08;;
67867;SDS011;54672;46.096;14.470;2022-11-20T04:16:40;2.42;;;1.13;;
67867;SDS011;54672;46.096;14.470;2022-11-20T04:19:08;1.23;;;0.90;;
67867;SDS011;54672;46.096;14.470;2022-11-20T04:21:36;2.00;;;1.02;;
67867;SDS011;54672;46.096;14.470;2022-11-20T04:24:02;1.63;;;0.90;;
67867;SDS011;54672;46.096;14.470;2022-11-20T04:26:28;1.38;;;0.90;;
67867;SDS011;54672;46.096;14.470;2022-11-20T04:28:55;1.13;;;0.73;;
67867;SDS011;54672;46.096;14.470;2022-11-20T04:31:25;1.40;;;0.82;;
67867;SDS011;54672;46.096;14.470;2022-11-20T04:33:52;1.38;;;0.85;;
67867;SDS011;54672;46.096;14.470;2022-11-20T04:36:19;1.30;;;0.80;;
67867;SDS011;54672;46.096;14.470;2022-11-20T04:38:46;1.42;;;0.95;;
67867;SDS011;54672;46.096;14.470;2022-11-20T04:41:17;1.65;;;1.00;;
67867;SDS011;54672;46.096;14.470;2022-11-20T04:43:47;1.45;;;0.90;;
67867;SDS011;54672;46.096;14.470;2022-11-20T04:46:18;2.10;;;0.82;;
67867;SDS011;54672;46.096;14.470;2022-11-20T04:48:44;1.92;;;0.90;;
67867;SDS011;54672;46.096;14.470;2022-11-20T04:51:11;1.70;;;1.10;;
67867;SDS011;54672;46.096;14.470;2022-11-20T04:53:37;1.85;;;1.08;;
67867;SDS011;54672;46.096;14.470;2022-11-20T04:56:04;2.08;;;1.20;;
67867;SDS011;54672;46.096;14.470;2022-11-20T04:58:32;2.10;;;1.30;;
67867;SDS011;54672;46.096;14.470;2022-11-20T05:01:05;2.17;;;1.02;;
67867;SDS011;54672;46.096;14.470;2022-11-20T05:03:32;2.20;;;1.13;;
67867;SDS011;54672;46.096;14.470;2022-11-20T05:06:04;3.97;;;1.30;;
67867;SDS011;54672;46.096;14.470;2022-11-20T05:08:30;1.38;;;0.98;;
67867;SDS011;54672;46.096;14.470;2022-11-20T05:11:31;1.90;;;1.20;;
67867;SDS011;54672;46.096;14.470;2022-11-20T05:13:49;1.55;;;1.00;;
67867;SDS011;54672;46.096;14.470;2022-11-20T05:16:16;1.80;;;1.10;;
67867;SDS011;54672;46.096;14.470;2022-11-20T05:18:43;1.27;;;0.88;;
67867;SDS011;54672;46.096;14.470;2022-11-20T05:21:09;2.03;;;1.10;;
67867;SDS011;54672;46.096;14.470;2022-11-20T05:23:35;1.75;;;1.08;;
67867;SDS011;54672;46.096;14.470;2022-11-20T05:26:02;2.22;;;1.20;;
67867;SDS011;54672;46.096;14.470;2022-11-20T05:28:28;3.05;;;1.40;;
67867;SDS011;54672;46.096;14.470;2022-11-20T05:30:54;2.13;;;1.17;;
67867;SDS011;54672;46.096;14.470;2022-11-20T05:33:20;2.53;;;1.23;;
67867;SDS011;54672;46.096;14.470;2022-11-20T05:35:46;2.05;;;1.13;;
67867;SDS011;54672;46.096;14.470;2022-11-20T05:38:13;2.42;;;1.25;;
67867;SDS011;54672;46.096;14.470;2022-11-20T05:40:38;1.60;;;1.08;;
67867;SDS011;54672;46.096;14.470;2022-11-20T05:43:03;1.58;;;1.10;;
67867;SDS011;54672;46.096;14.470;2022-11-20T05:45:29;1.77;;;1.00;;
67867;SDS011;54672;46.096;14.470;2022-11-20T05:47:57;1.75;;;1.00;;
67867;SDS011;54672;46.096;14.470;2022-11-20T05:50:25;1.65;;;0.82;;
67867;SDS011;54672;46.096;14.470;2022-11-20T05:52:50;1.15;;;0.80;;
67867;SDS011;54672;46.096;14.470;2022-11-20T05:55:15;1.67;;;0.82;;
67867;SDS011;54672;46.096;14.470;2022-11-20T05:57:41;1.67;;;0.80;;
67867;SDS011;54672;46.096;14.470;2022-11-20T06:00:06;2.35;;;1.05;;
67867;SDS011;54672;46.096;14.470;2022-11-20T06:02:34;2.03;;;0.90;;
67867;SDS011;54672;46.096;14.470;2022-11-20T06:05:00;1.65;;;0.88;;
67867;SDS011;54672;46.096;14.470;2022-11-20T06:07:26;1.67;;;0.95;;
67867;SDS011;54672;46.096;14.470;2022-11-20T06:09:51;1.25;;;0.80;;
67867;SDS011;54672;46.096;14.470;2022-11-20T06:12:17;1.63;;;1.00;;
67867;SDS011;54672;46.096;14.470;2022-11-20T06:14:42;2.10;;;1.20;;
67867;SDS011;54672;46.096;14.470;2022-11-20T06:17:07;2.30;;;1.10;;
67867;SDS011;54672;46.096;14.470;2022-11-20T06:19:33;1.55;;;0.88;;
67867;SDS011;54672;46.096;14.470;2022-11-20T06:21:58;1.58;;;0.77;;
67867;SDS011;54672;46.096;14.470;2022-11-20T06:24:24;1.55;;;1.08;;
67867;SDS011;54672;46.096;14.470;2022-11-20T06:26:50;1.80;;;1.08;;
67867;SDS011;54672;46.096;14.470;2022-11-20T06:29:15;2.60;;;1.40;;
67867;SDS011;54672;46.096;14.470;2022-11-20T06:31:41;5.78;;;2.72;;
67867;SDS011;54672;46.096;14.470;2022-11-20T06:34:07;5.72;;;2.65;;
67867;SDS011;54672;46.096;14.470;2022-11-20T06:36:33;2.20;;;1.00;;
67867;SDS011;54672;46.096;14.470;2022-11-20T06:38:59;1.88;;;1.15;;
67867;SDS011;54672;46.096;14.470;2022-11-20T06:41:24;1.20;;;0.90;;
67867;SDS011;54672;46.096;14.470;2022-11-20T06:43:50;1.92;;;1.17;;
67867;SDS011;54672;46.096;14.470;2022-11-20T06:46:16;6.63;;;2.25;;
67867;SDS011;54672;46.096;14.470;2022-11-20T06:48:43;3.17;;;1.73;;
67867;SDS011;54672;46.096;14.470;2022-11-20T06:51:09;3.53;;;1.33;;
67867;SDS011;54672;46.096;14.470;2022-11-20T06:53:35;3.45;;;1.30;;
67867;SDS011;54672;46.096;14.470;2022-11-20T06:56:01;6.93;;;3.03;;
67867;SDS011;54672;46.096;14.470;2022-11-20T06:58:27;6.07;;;2.80;;
67867;SDS011;54672;46.096;14.470;2022-11-20T07:00:58;1.90;;;1.02;;
67867;SDS011;54672;46.096;14.470;2022-11-20T07:03:27;3.60;;;1.58;;
67867;SDS011;54672;46.096;14.470;2022-11-20T07:05:56;2.33;;;1.30;;
67867;SDS011;54672;46.096;14.470;2022-11-20T07:08:23;2.40;;;1.30;;
67867;SDS011;54672;46.096;14.470;2022-11-20T07:10:49;3.13;;;1.33;;
67867;SDS011;54672;46.096;14.470;2022-11-20T07:13:14;2.20;;;1.00;;
67867;SDS011;54672;46.096;14.470;2022-11-20T07:15:40;1.35;;;0.90;;
67867;SDS011;54672;46.096;14.470;2022-11-20T07:18:05;1.80;;;0.98;;
67867;SDS011;54672;46.096;14.470;2022-11-20T07:20:31;1.25;;;0.70;;
67867;SDS011;54672;46.096;14.470;2022-11-20T07:22:57;1.60;;;1.02;;
67867;SDS011;54672;46.096;14.470;2022-11-20T07:25:26;3.72;;;1.70;;
67867;SDS011;54672;46.096;14.470;2022-11-20T07:27:52;2.47;;;1.13;;
67867;SDS011;54672;46.096;14.470;2022-11-20T07:30:21;0.98;;;0.80;;
67867;SDS011;54672;46.096;14.470;2022-11-20T07:32:47;3.47;;;1.50;;
67867;SDS011;54672;46.096;14.470;2022-11-20T07:35:15;1.88;;;1.00;;
67867;SDS011;54672;46.096;14.470;2022-11-20T07:37:41;1.58;;;1.00;;
67867;SDS011;54672;46.096;14.470;2022-11-20T07:40:06;1.83;;;0.80;;
67867;SDS011;54672;46.096;14.470;2022-11-20T07:42:32;2.10;;;0.93;;
67867;SDS011;54672;46.096;14.470;2022-11-20T07:44:57;1.13;;;0.80;;
67867;SDS011;54672;46.096;14.470;2022-11-20T07:47:23;2.78;;;1.08;;
67867;SDS011;54672;46.096;14.470;2022-11-20T07:49:48;1.50;;;0.80;;
67867;SDS011;54672;46.096;14.470;2022-11-20T07:52:14;1.92;;;1.00;;
67867;SDS011;54672;46.096;14.470;2022-11-20T07:54:39;2.80;;;1.30;;
67867;SDS011;54672;46.096;14.470;2022-11-20T07:57:04;2.15;;;1.05;;
67867;SDS011;54672;46.096;14.470;2022-11-20T07:59:30;2.47;;;1.27;;
67867;SDS011;54672;46.096;14.470;2022-11-20T08:01:55;3.42;;;1.55;;
67867;SDS011;54672;46.096;14.470;2022-11-20T08:04:21;2.03;;;1.00;;
67867;SDS011;54672;46.096;14.470;2022-11-20T08:06:46;3.10;;;1.05;;
67867;SDS011;54672;46.096;14.470;2022-11-20T08:09:12;1.98;;;1.20;;
67867;SDS011;54672;46.096;14.470;2022-11-20T08:11:37;2.42;;;1.20;;
67867;SDS011;54672;46.096;14.470;2022-11-20T08:14:21;2.47;;;1.20;;
67867;SDS011;54672;46.096;14.470;2022-11-20T08:16:47;2.45;;;1.10;;
67867;SDS011;54672;46.096;14.470;2022-11-20T08:19:14;1.67;;;1.08;;
67867;SDS011;54672;46.096;14.470;2022-11-20T08:21:42;2.78;;;1.30;;
67867;SDS011;54672;46.096;14.470;2022-11-20T08:24:08;2.40;;;1.35;;
67867;SDS011;54672;46.096;14.470;2022-11-20T08:26:34;2.00;;;1.20;;
67867;SDS011;54672;46.096;14.470;2022-11-20T08:29:01;2.10;;;1.20;;
67867;SDS011;54672;46.096;14.470;2022-11-20T08:31:27;1.75;;;0.93;;
67867;SDS011;54672;46.096;14.470;2022-11-20T08:33:53;1.98;;;1.17;;
67867;SDS011;54672;46.096;14.470;2022-11-20T08:36:19;2.42;;;1.00;;
67867;SDS011;54672;46.096;14.470;2022-11-20T08:38:52;2.30;;;1.13;;
67867;SDS011;54672;46.096;14.470;2022-11-20T08:41:18;2.50;;;1.20;;
67867;SDS011;54672;46.096;14.470;2022-11-20T08:46:20;1.70;;;1.17;;
67867;SDS011;54672;46.096;14.470;2022-11-20T08:48:46;1.95;;;1.10;;
67867;SDS011;54672;46.096;14.470;2022-11-20T08:51:11;1.67;;;0.90;;
67867;SDS011;54672;46.096;14.470;2022-11-20T08:53:38;1.23;;;0.93;;
67867;SDS011;54672;46.096;14.470;2022-11-20T08:56:05;2.45;;;1.10;;
67867;SDS011;54672;46.096;14.470;2022-11-20T08:58:30;1.58;;;1.20;;
67867;SDS011;54672;46.096;14.470;2022-11-20T09:00:56;1.75;;;1.00;;
67867;SDS011;54672;46.096;14.470;2022-11-20T09:03:21;2.00;;;1.08;;
67867;SDS011;54672;46.096;14.470;2022-11-20T09:05:47;1.55;;;0.98;;
67867;SDS011;54672;46.096;14.470;2022-11-20T09:08:12;1.75;;;1.15;;
67867;SDS011;54672;46.096;14.470;2022-11-20T09:10:38;1.95;;;1.17;;
67867;SDS011;54672;46.096;14.470;2022-11-20T09:13:05;2.10;;;1.20;;
67867;SDS011;54672;46.096;14.470;2022-11-20T09:15:30;3.63;;;2.00;;
67867;SDS011;54672;46.096;14.470;2022-11-20T09:17:57;3.58;;;1.90;;
67867;SDS011;54672;46.096;14.470;2022-11-20T09:20:25;5.07;;;2.28;;
67867;SDS011;54672;46.096;14.470;2022-11-20T09:22:51;2.85;;;1.60;;
67867;SDS011;54672;46.096;14.470;2022-11-20T09:25:16;3.35;;;1.33;;
67867;SDS011;54672;46.096;14.470;2022-11-20T09:27:42;5.05;;;1.42;;
67867;SDS011;54672;46.096;14.470;2022-11-20T09:30:09;3.40;;;1.20;;
67867;SDS011;54672;46.096;14.470;2022-11-20T09:32:35;2.45;;;1.33;;
67867;SDS011;54672;46.096;14.470;2022-11-20T09:35:01;2.40;;;1.30;;
67867;SDS011;54672;46.096;14.470;2022-11-20T09:37:27;2.45;;;1.58;;
67867;SDS011;54672;46.096;14.470;2022-11-20T09:39:52;2.45;;;1.38;;
67867;SDS011;54672;46.096;14.470;2022-11-20T09:42:41;2.55;;;1.35;;
67867;SDS011;54672;46.096;14.470;2022-11-20T09:51:16;2.50;;;1.20;;
67867;SDS011;54672;46.096;14.470;2022-11-20T09:56:39;2.33;;;1.23;;
67867;SDS011;54672;46.096;14.470;2022-11-20T09:59:09;3.55;;;1.70;;
67867;SDS011;54672;46.096;14.470;2022-11-20T10:01:57;5.90;;;1.95;;
67867;SDS011;54672;46.096;14.470;2022-11-20T10:04:24;5.45;;;1.92;;
67867;SDS011;54672;46.096;14.470;2022-11-20T10:09:34;5.47;;;2.55;;
67867;SDS011;54672;46.096;14.470;2022-11-20T10:28:24;2.58;;;1.60;;
67867;SDS011;54672;46.096;14.470;2022-11-20T10:31:00;4.47;;;2.08;;
67867;SDS011;54672;46.096;14.470;2022-11-20T10:33:30;5.45;;;2.47;;
67867;SDS011;54672;46.096;14.470;2022-11-20T10:36:22;5.38;;;2.53;;
67867;SDS011;54672;46.096;14.470;2022-11-20T10:39:00;4.35;;;2.30;;
67867;SDS011;54672;46.096;14.470;2022-11-20T10:41:32;5.30;;;2.80;;
67867;SDS011;54672;46.096;14.470;2022-11-20T10:44:09;4.05;;;2.45;;
67867;SDS011;54672;46.096;14.470;2022-11-20T10:46:44;5.30;;;2.33;;
67867;SDS011;54672;46.096;14.470;2022-11-20T10:49:16;6.60;;;2.50;;
67867;SDS011;54672;46.096;14.470;2022-11-20T10:54:52;3.25;;;1.90;;
67867;SDS011;54672;46.096;14.470;2022-11-20T11:00:15;3.75;;;2.40;;
67867;SDS011;54672;46.096;14.470;2022-11-20T11:07:45;3.67;;;2.13;;
67867;SDS011;54672;46.096;14.470;2022-11-20T11:10:18;4.35;;;2.10;;
67867;SDS011;54672;46.096;14.470;2022-11-20T11:12:49;5.20;;;2.13;;
67867;SDS011;54672;46.096;14.470;2022-11-20T11:16:00;4.18;;;2.10;;
67867;SDS011;54672;46.096;14.470;2022-11-20T11:18:04;3.13;;;2.20;;
67867;SDS011;54672;46.096;14.470;2022-11-20T11:20:33;3.75;;;2.20;;
67867;SDS011;54672;46.096;14.470;2022-11-20T11:22:59;3.70;;;2.10;;
67867;SDS011;54672;46.096;14.470;2022-11-20T11:25:35;4.72;;;2.03;;
67867;SDS011;54672;46.096;14.470;2022-11-20T11:28:03;6.60;;;1.90;;
67867;SDS011;54672;46.096;14.470;2022-11-20T11:30:40;5.15;;;2.55;;
67867;SDS011;54672;46.096;14.470;2022-11-20T11:33:17;4.15;;;2.28;;
67867;SDS011;54672;46.096;14.470;2022-11-20T11:35:46;3.65;;;2.13;;
67867;SDS011;54672;46.096;14.470;2022-11-20T11:38:14;7.97;;;3.28;;
67867;SDS011;54672;46.096;14.470;2022-11-20T11:40:43;25.55;;;7.72;;
67867;SDS011;54672;46.096;14.470;2022-11-20T11:43:19;18.55;;;8.77;;
67867;SDS011;54672;46.096;14.470;2022-11-20T11:51:50;3.42;;;2.03;;
67867;SDS011;54672;46.096;14.470;2022-11-20T12:04:55;5.50;;;2.63;;
67867;SDS011;54672;46.096;14.470;2022-11-20T12:10:00;3.35;;;2.05;;
67867;SDS011;54672;46.096;14.470;2022-11-20T12:12:31;4.53;;;2.45;;
67867;SDS011;54672;46.096;14.470;2022-11-20T12:15:02;6.00;;;2.75;;
67867;SDS011;54672;46.096;14.470;2022-11-20T12:17:29;4.97;;;2.20;;
67867;SDS011;54672;46.096;14.470;2022-11-20T12:19:54;4.18;;;2.30;;
67867;SDS011;54672;46.096;14.470;2022-11-20T12:28:06;4.05;;;2.22;;
67867;SDS011;54672;46.096;14.470;2022-11-20T12:30:44;5.78;;;2.72;;
67867;SDS011;54672;46.096;14.470;2022-11-20T12:36:02;6.03;;;2.85;;
67867;SDS011;54672;46.096;14.470;2022-11-20T12:41:47;3.55;;;2.22;;
67867;SDS011;54672;46.096;14.470;2022-11-20T12:44:45;5.55;;;3.03;;
67867;SDS011;54672;46.096;14.470;2022-11-20T12:52:57;4.43;;;2.50;;
67867;SDS011;54672;46.096;14.470;2022-11-20T13:04:08;5.03;;;2.70;;
67867;SDS011;54672;46.096;14.470;2022-11-20T13:06:44;5.85;;;2.45;;
67867;SDS011;54672;46.096;14.470;2022-11-20T13:09:11;5.13;;;2.85;;
67867;SDS011;54672;46.096;14.470;2022-11-20T13:14:34;6.95;;;3.08;;
67867;SDS011;54672;46.096;14.470;2022-11-20T13:19:52;3.25;;;2.00;;
67867;SDS011;54672;46.096;14.470;2022-11-20T13:22:26;3.03;;;1.60;;
67867;SDS011;54672;46.096;14.470;2022-11-20T13:24:52;4.63;;;2.20;;
67867;SDS011;54672;46.096;14.470;2022-11-20T13:27:19;3.13;;;1.73;;
67867;SDS011;54672;46.096;14.470;2022-11-20T13:29:57;2.92;;;1.80;;
67867;SDS011;54672;46.096;14.470;2022-11-20T13:32:26;3.75;;;1.90;;
67867;SDS011;54672;46.096;14.470;2022-11-20T13:35:00;3.67;;;1.98;;
67867;SDS011;54672;46.096;14.470;2022-11-20T13:37:31;4.85;;;2.22;;
67867;SDS011;54672;46.096;14.470;2022-11-20T13:42:38;5.07;;;2.60;;
67867;SDS011;54672;46.096;14.470;2022-11-20T13:45:10;5.35;;;2.45;;
67867;SDS011;54672;46.096;14.470;2022-11-20T13:47:47;4.50;;;2.35;;
67867;SDS011;54672;46.096;14.470;2022-11-20T13:50:14;4.85;;;2.83;;
67867;SDS011;54672;46.096;14.470;2022-11-20T13:55:32;5.55;;;2.53;;
67867;SDS011;54672;46.096;14.470;2022-11-20T14:00:32;4.93;;;2.72;;
67867;SDS011;54672;46.096;14.470;2022-11-20T14:05:51;3.20;;;2.42;;
67867;SDS011;54672;46.096;14.470;2022-11-20T14:08:41;4.53;;;2.38;;
67867;SDS011;54672;46.096;14.470;2022-11-20T14:11:29;7.68;;;3.53;;
67867;SDS011;54672;46.096;14.470;2022-11-20T14:16:44;5.53;;;3.00;;
67867;SDS011;54672;46.096;14.470;2022-11-20T14:21:45;6.22;;;2.95;;
67867;SDS011;54672;46.096;14.470;2022-11-20T14:24:12;5.65;;;3.20;;
67867;SDS011;54672;46.096;14.470;2022-11-20T14:26:41;4.57;;;2.83;;
67867;SDS011;54672;46.096;14.470;2022-11-20T14:29:15;6.13;;;2.92;;
67867;SDS011;54672;46.096;14.470;2022-11-20T14:31:52;6.28;;;2.95;;
67867;SDS011;54672;46.096;14.470;2022-11-20T14:34:26;4.60;;;2.72;;
67867;SDS011;54672;46.096;14.470;2022-11-20T14:36:57;10.52;;;3.50;;
67867;SDS011;54672;46.096;14.470;2022-11-20T14:39:26;5.40;;;3.03;;
67867;SDS011;54672;46.096;14.470;2022-11-20T14:42:15;4.50;;;2.85;;
67867;SDS011;54672;46.096;14.470;2022-11-20T14:44:42;8.27;;;4.50;;
67867;SDS011;54672;46.096;14.470;2022-11-20T14:47:09;5.97;;;3.55;;
67867;SDS011;54672;46.096;14.470;2022-11-20T14:49:37;6.65;;;3.20;;
67867;SDS011;54672;46.096;14.470;2022-11-20T14:52:14;5.22;;;2.90;;
67867;SDS011;54672;46.096;14.470;2022-11-20T14:54:48;5.53;;;3.05;;
67867;SDS011;54672;46.096;14.470;2022-11-20T14:59:47;5.05;;;3.00;;
67867;SDS011;54672;46.096;14.470;2022-11-20T15:02:12;6.20;;;3.00;;
67867;SDS011;54672;46.096;14.470;2022-11-20T15:04:48;5.78;;;3.15;;
67867;SDS011;54672;46.096;14.470;2022-11-20T15:07:29;5.57;;;3.10;;
67867;SDS011;54672;46.096;14.470;2022-11-20T15:10:07;11.95;;;4.97;;
67867;SDS011;54672;46.096;14.470;2022-11-20T15:12:36;13.88;;;6.63;;
67867;SDS011;54672;46.096;14.470;2022-11-20T15:15:04;14.80;;;6.00;;
67867;SDS011;54672;46.096;14.470;2022-11-20T15:17:30;12.20;;;6.03;;
67867;SDS011;54672;46.096;14.470;2022-11-20T15:19:57;7.63;;;3.22;;
67867;SDS011;54672;46.096;14.470;2022-11-20T15:22:24;6.38;;;2.80;;
67867;SDS011;54672;46.096;14.470;2022-11-20T15:24:50;4.20;;;2.60;;
67867;SDS011;54672;46.096;14.470;2022-11-20T15:27:15;4.93;;;2.65;;
67867;SDS011;54672;46.096;14.470;2022-11-20T15:29:41;6.45;;;3.35;;
67867;SDS011;54672;46.096;14.470;2022-11-20T15:32:08;7.70;;;3.50;;
67867;SDS011;54672;46.096;14.470;2022-11-20T15:34:34;18.33;;;7.57;;
67867;SDS011;54672;46.096;14.470;2022-11-20T15:36:59;13.10;;;5.78;;
67867;SDS011;54672;46.096;14.470;2022-11-20T15:39:25;9.05;;;4.93;;
67867;SDS011;54672;46.096;14.470;2022-11-20T15:41:50;6.97;;;3.72;;
67867;SDS011;54672;46.096;14.470;2022-11-20T15:44:15;7.22;;;4.20;;
67867;SDS011;54672;46.096;14.470;2022-11-20T15:46:41;8.32;;;4.68;;
67867;SDS011;54672;46.096;14.470;2022-11-20T15:49:11;8.70;;;4.93;;
67867;SDS011;54672;46.096;14.470;2022-11-20T15:51:38;10.38;;;5.47;;
67867;SDS011;54672;46.096;14.470;2022-11-20T15:54:10;8.70;;;4.82;;
67867;SDS011;54672;46.096;14.470;2022-11-20T15:56:37;9.77;;;5.05;;
67867;SDS011;54672;46.096;14.470;2022-11-20T15:59:03;9.70;;;5.03;;
67867;SDS011;54672;46.096;14.470;2022-11-20T16:01:28;11.63;;;5.90;;
67867;SDS011;54672;46.096;14.470;2022-11-20T16:03:54;9.25;;;5.68;;
67867;SDS011;54672;46.096;14.470;2022-11-20T16:06:19;9.18;;;5.30;;
67867;SDS011;54672;46.096;14.470;2022-11-20T16:08:45;9.98;;;5.50;;
67867;SDS011;54672;46.096;14.470;2022-11-20T16:11:11;10.70;;;5.75;;
67867;SDS011;54672;46.096;14.470;2022-11-20T16:13:38;9.48;;;5.60;;
67867;SDS011;54672;46.096;14.470;2022-11-20T16:16:27;7.85;;;4.28;;
67867;SDS011;54672;46.096;14.470;2022-11-20T16:18:55;7.75;;;5.32;;
67867;SDS011;54672;46.096;14.470;2022-11-20T16:21:21;9.40;;;5.72;;
67867;SDS011;54672;46.096;14.470;2022-11-20T16:23:52;8.25;;;5.40;;
67867;SDS011;54672;46.096;14.470;2022-11-20T16:26:18;8.15;;;5.15;;
67867;SDS011;54672;46.096;14.470;2022-11-20T16:28:45;7.93;;;4.97;;
67867;SDS011;54672;46.096;14.470;2022-11-20T16:31:14;8.45;;;4.30;;
67867;SDS011;54672;46.096;14.470;2022-11-20T16:33:41;8.55;;;5.10;;
67867;SDS011;54672;46.096;14.470;2022-11-20T16:36:11;12.52;;;5.78;;
67867;SDS011;54672;46.096;14.470;2022-11-20T16:38:37;11.15;;;5.43;;